Time;durP1;ratioP1;P1;durP2;ratioP2;P2;SDS_P1;SDS_P2;PMS_P1;PMS_P2;Temp;Humidity;BMP_temperature;BMP_pressure;BME280_temperature;BME280_humidity;BME280_pressure;Samples;Min_cycle;Max_cycle;Signal;HPM_P1;HPM_P2
2022/05/09 00:00:19;;;;;;;3.22;1.50;;;7.10;99.90;;;;;;6225095;22;20011;-90
2022/05/09 00:02:45;;;;;;;3.58;1.42;;;7.10;99.90;;;;;;6224956;22;20026;-91
2022/05/09 00:05:15;;;;;;;5.35;1.50;;;7.10;99.90;;;;;;6224949;22;20018;-90
2022/05/09 00:07:42;;;;;;;4.75;1.40;;;7.10;99.90;;;;;;6225296;22;20098;-91
2022/05/09 00:10:09;;;;;;;;;;;7.00;99.90;;;;;;6225558;22;20015;-91
2022/05/09 00:12:35;;;;;;;2.95;1.13;;;7.00;99.90;;;;;;6224878;22;20341;-91
2022/05/09 00:15:01;;;;;;;5.57;1.27;;;7.00;99.90;;;;;;6225157;22;20062;-90
2022/05/09 00:17:26;;;;;;;6.50;1.40;;;7.00;99.90;;;;;;6224932;22;20008;-91
2022/05/09 00:19:52;;;;;;;3.57;1.30;;;7.10;99.90;;;;;;6224814;22;20020;-90
2022/05/09 00:22:18;;;;;;;5.40;1.03;;;7.00;99.90;;;;;;6225347;22;20039;-91
2022/05/09 00:24:43;;;;;;;3.30;1.10;;;7.10;99.90;;;;;;6224917;22;20011;-90
2022/05/09 00:27:10;;;;;;;3.83;1.03;;;7.10;99.90;;;;;;6225101;22;20066;-92
2022/05/09 00:29:36;;;;;;;6.07;1.38;;;7.00;99.90;;;;;;6224964;22;20027;-91
2022/05/09 00:32:02;;;;;;;5.73;1.50;;;7.10;99.90;;;;;;6224904;22;20091;-91
2022/05/09 00:34:27;;;;;;;2.67;0.98;;;7.00;99.90;;;;;;6225101;22;20016;-90
2022/05/09 00:36:55;;;;;;;3.23;1.03;;;7.00;99.90;;;;;;6224837;22;20014;-91
2022/05/09 00:39:21;;;;;;;3.45;1.25;;;7.00;99.90;;;;;;6224916;22;20069;-91
2022/05/09 00:41:47;;;;;;;2.77;1.10;;;7.10;99.90;;;;;;6224678;22;20376;-91
2022/05/09 00:44:27;;;;;;;2.42;0.90;;;7.10;99.90;;;;;;6225072;22;20074;-91
2022/05/09 00:46:56;;;;;;;1.55;0.70;;;7.10;99.90;;;;;;6224796;22;20015;-91
2022/05/09 00:49:30;;;;;;;1.63;0.70;;;7.10;99.90;;;;;;6225010;22;20047;-91
2022/05/09 00:52:08;;;;;;;2.15;1.00;;;7.00;99.90;;;;;;6225073;22;20022;-92
2022/05/09 00:54:45;;;;;;;3.55;1.00;;;7.00;99.90;;;;;;6250371;22;20020;-90
2022/05/09 00:57:19;;;;;;;4.87;1.40;;;6.90;99.90;;;;;;6224733;22;20047;-91
2022/05/09 00:59:46;;;;;;;4.07;1.00;;;6.80;99.90;;;;;;6250057;22;20023;-91
2022/05/09 01:02:16;;;;;;;;;;;6.80;99.90;;;;;;6225376;22;20336;-91
2022/05/09 01:04:54;;;;;;;1.42;0.47;;;6.70;99.90;;;;;;6224735;22;19951;-91
2022/05/09 01:07:22;;;;;;;1.73;0.70;;;6.70;99.90;;;;;;6224373;22;20027;-90
2022/05/09 01:09:48;;;;;;;1.80;0.60;;;6.70;99.90;;;;;;6224525;22;20027;-91
2022/05/09 01:12:21;;;;;;;1.27;0.47;;;6.70;99.90;;;;;;6224516;22;20015;-91
2022/05/09 01:14:47;;;;;;;2.38;0.60;;;6.70;99.90;;;;;;6250568;22;20011;-91
2022/05/09 01:17:13;;;;;;;3.65;0.70;;;6.70;99.90;;;;;;6226735;22;20019;-90
2022/05/09 01:19:42;;;;;;;1.80;0.80;;;6.70;99.90;;;;;;6226772;22;20020;-91
2022/05/09 01:22:31;;;;;;;2.35;0.70;;;6.70;99.90;;;;;;6226754;22;20094;-91
2022/05/09 01:25:03;;;;;;;2.45;0.60;;;6.70;99.90;;;;;;6226762;22;20514;-91
2022/05/09 01:27:35;;;;;;;2.72;0.60;;;6.70;99.90;;;;;;6252019;22;20014;-91
2022/05/09 01:30:06;;;;;;;3.22;0.80;;;6.70;99.90;;;;;;6251681;22;20011;-90
2022/05/09 01:32:41;;;;;;;2.80;0.85;;;6.70;99.90;;;;;;6226295;22;20051;-91
2022/05/09 01:35:22;;;;;;;3.10;0.88;;;6.60;99.90;;;;;;6226444;22;20500;-90
2022/05/09 01:37:52;;;;;;;2.15;0.80;;;6.50;99.90;;;;;;6226039;22;20027;-90
2022/05/09 01:40:18;;;;;;;2.00;0.65;;;6.50;99.90;;;;;;6251468;22;20452;-90
2022/05/09 01:42:44;;;;;;;2.47;0.80;;;6.40;99.90;;;;;;6226235;22;20063;-90
2022/05/09 01:45:12;;;;;;;2.22;1.02;;;6.40;99.90;;;;;;6226198;22;20067;-90
2022/05/09 01:50:23;;;;;;;2.03;0.75;;;6.30;99.90;;;;;;6251355;22;20070;-90
2022/05/09 01:52:49;;;;;;;;;;;6.20;99.90;;;;;;6226615;22;20367;-90
2022/05/09 01:55:15;;;;;;;2.30;0.60;;;6.20;99.90;;;;;;6225959;22;20026;-90
2022/05/09 01:57:40;;;;;;;1.10;0.40;;;6.20;99.90;;;;;;6226034;22;20016;-91
2022/05/09 02:00:09;;;;;;;0.90;0.30;;;6.20;99.90;;;;;;6226192;22;20016;-90
2022/05/09 02:02:35;;;;;;;0.80;0.30;;;6.10;99.90;;;;;;6226070;22;20112;-91
2022/05/09 02:05:02;;;;;;;0.10;0.10;;;6.10;99.90;;;;;;6226300;22;20012;-90
2022/05/09 02:07:28;;;;;;;0.60;0.30;;;5.90;99.90;;;;;;6251351;22;20095;-90
2022/05/09 02:09:53;;;;;;;0.60;0.30;;;5.80;99.90;;;;;;6226068;22;20062;-90
2022/05/09 02:12:20;;;;;;;0.70;0.30;;;5.70;99.90;;;;;;6226579;22;20042;-90
2022/05/09 02:14:48;;;;;;;1.35;0.40;;;5.60;99.90;;;;;;6226045;22;20095;-90
2022/05/09 02:17:15;;;;;;;0.88;0.30;;;5.60;99.90;;;;;;6226304;22;20051;-90
2022/05/09 02:19:42;;;;;;;0.55;0.30;;;5.60;99.90;;;;;;6251501;22;20020;-90
2022/05/09 02:22:09;;;;;;;0.93;0.40;;;5.60;99.90;;;;;;6225924;22;20445;-90
2022/05/09 02:24:35;;;;;;;;;;;5.60;99.90;;;;;;6226399;22;20098;-90
2022/05/09 02:27:01;;;;;;;0.63;0.30;;;5.60;99.90;;;;;;6225660;22;19989;-90
2022/05/09 02:29:28;;;;;;;0.82;0.40;;;5.60;99.90;;;;;;6226068;22;20400;-91
2022/05/09 02:31:55;;;;;;;1.88;0.32;;;5.50;99.90;;;;;;6226345;22;20026;-90
2022/05/09 02:34:21;;;;;;;1.27;0.50;;;5.50;99.90;;;;;;6225648;22;20011;-91
2022/05/09 02:36:47;;;;;;;1.05;0.30;;;5.50;99.90;;;;;;6226015;22;20019;-90
2022/05/09 02:39:13;;;;;;;1.10;0.40;;;5.40;99.90;;;;;;6225860;22;20016;-91
2022/05/09 02:41:39;;;;;;;0.60;0.40;;;5.30;99.90;;;;;;6225745;22;20448;-90
2022/05/09 02:44:05;;;;;;;1.10;0.47;;;5.30;99.90;;;;;;6226018;22;20020;-91
2022/05/09 02:46:30;;;;;;;1.17;0.60;;;5.20;99.90;;;;;;6225864;22;20018;-91
2022/05/09 02:48:59;;;;;;;1.83;0.53;;;5.30;99.90;;;;;;6225734;22;20095;-90
2022/05/09 02:51:27;;;;;;;1.02;0.40;;;5.20;99.90;;;;;;6225671;22;20344;-91
2022/05/09 02:53:54;;;;;;;0.70;0.40;;;5.30;99.90;;;;;;6225977;22;20015;-91
2022/05/09 02:56:20;;;;;;;2.00;0.50;;;5.30;99.90;;;;;;6226094;22;20344;-92
2022/05/09 02:58:46;;;;;;;1.38;0.57;;;5.30;99.90;;;;;;6225891;22;20059;-91
2022/05/09 03:01:12;;;;;;;0.80;0.30;;;5.30;99.90;;;;;;6226015;22;20020;-92
2022/05/09 03:06:22;;;;;;;0.52;0.40;;;5.20;99.90;;;;;;6250815;22;20081;-91
2022/05/09 03:08:48;;;;;;;1.37;0.50;;;5.10;99.90;;;;;;6225840;22;20102;-90
2022/05/09 03:11:13;;;;;;;1.77;0.50;;;5.10;99.90;;;;;;6225528;22;20043;-90
2022/05/09 03:13:39;;;;;;;1.33;0.40;;;5.00;99.90;;;;;;6225505;22;20099;-90
2022/05/09 03:16:06;;;;;;;1.00;0.40;;;4.90;99.90;;;;;;6250648;22;20101;-90
2022/05/09 03:18:31;;;;;;;0.63;0.35;;;4.90;99.90;;;;;;6225236;22;20018;-90
2022/05/09 03:20:57;;;;;;;0.20;0.20;;;4.80;99.90;;;;;;6225348;22;20013;-90
2022/05/09 03:23:23;;;;;;;2.53;0.30;;;4.80;99.90;;;;;;6225616;22;20129;-90
2022/05/09 03:25:50;;;;;;;0.40;0.20;;;4.70;99.90;;;;;;6225458;22;20019;-91
2022/05/09 03:28:24;;;;;;;0.35;0.20;;;4.70;99.90;;;;;;6225287;22;20012;-90
2022/05/09 03:30:52;;;;;;;0.90;0.38;;;4.60;99.90;;;;;;6225452;22;20027;-90
2022/05/09 03:33:20;;;;;;;0.65;0.30;;;4.70;99.90;;;;;;6225614;22;20012;-91
2022/05/09 03:35:46;;;;;;;1.00;0.30;;;4.70;99.90;;;;;;6225220;22;20015;-90
2022/05/09 03:38:12;;;;;;;0.98;0.50;;;4.90;99.90;;;;;;6224672;22;20016;-89
2022/05/09 03:40:39;;;;;;;1.02;0.50;;;4.90;99.90;;;;;;6250616;22;20022;-89
2022/05/09 03:43:06;;;;;;;2.45;0.60;;;4.90;99.90;;;;;;6225176;22;20472;-91
2022/05/09 03:45:32;;;;;;;1.27;0.50;;;5.00;99.90;;;;;;6250638;22;20012;-90
2022/05/09 03:47:59;;;;;;;1.85;0.60;;;5.00;99.90;;;;;;6225386;22;20027;-91
2022/05/09 03:50:28;;;;;;;1.17;0.40;;;5.00;99.90;;;;;;6225432;22;20047;-91
2022/05/09 03:52:54;;;;;;;0.93;0.50;;;5.00;99.90;;;;;;6225510;22;20046;-91
2022/05/09 03:55:19;;;;;;;1.50;0.70;;;5.10;99.90;;;;;;6225352;22;20066;-90
2022/05/09 03:57:55;;;;;;;0.87;0.40;;;5.00;99.90;;;;;;6224920;22;20054;-91
2022/05/09 04:00:24;;;;;;;1.33;0.60;;;5.10;99.90;;;;;;6225099;22;20456;-89
2022/05/09 04:02:50;;;;;;;1.02;0.40;;;5.00;99.90;;;;;;6225120;22;20011;-90
2022/05/09 04:05:17;;;;;;;0.90;0.40;;;5.00;99.90;;;;;;6224991;22;20022;-90
2022/05/09 04:07:52;;;;;;;0.60;0.20;;;4.90;99.90;;;;;;6225044;22;20069;-91
2022/05/09 04:10:21;;;;;;;1.30;0.40;;;4.90;99.90;;;;;;6250421;22;20035;-91
2022/05/09 04:12:47;;;;;;;0.50;0.30;;;4.90;99.90;;;;;;6225145;22;20015;-91
2022/05/09 04:17:58;;;;;;;0.93;0.30;;;4.80;99.90;;;;;;6249965;22;20031;-91
2022/05/09 04:20:26;;;;;;;0.60;0.30;;;4.80;99.90;;;;;;6225195;22;20016;-91
2022/05/09 04:22:52;;;;;;;0.85;0.35;;;4.70;99.90;;;;;;6225139;22;20090;-92
2022/05/09 04:25:19;;;;;;;0.55;0.30;;;4.70;99.90;;;;;;6225148;22;20016;-92
2022/05/09 04:27:45;;;;;;;0.98;0.30;;;4.60;99.90;;;;;;6224881;22;20042;-92
2022/05/09 04:30:12;;;;;;;0.47;0.27;;;4.70;99.90;;;;;;6225326;22;20022;-93
2022/05/09 04:32:49;;;;;;;0.47;0.30;;;4.60;99.90;;;;;;6224900;22;20050;-92
2022/05/09 04:35:20;;;;;;;1.00;0.40;;;4.60;99.90;;;;;;6224871;22;20090;-92
2022/05/09 04:38:43;;;;;;;;;;;;;;;;;;;;;
2022/05/09 04:40:54;;;;;;;0.80;0.30;;;4.50;99.90;;;;;;6256503;22;20023;-91
2022/05/09 04:43:23;;;;;;;1.13;0.50;;;4.50;99.90;;;;;;6224911;22;20468;-91
2022/05/09 04:46:05;;;;;;;1.60;0.57;;;4.50;99.90;;;;;;6224984;22;20015;-90
2022/05/09 04:51:34;;;;;;;1.85;0.80;;;4.40;99.90;;;;;;6250045;22;20020;-90
2022/05/09 04:54:43;;;;;;;2.58;1.00;;;4.40;99.90;;;;;;6224682;22;20019;-90
2022/05/09 05:10:33;;;;;;;1.73;0.77;;;5.00;99.90;;;;;;6233653;23;20048;-90
2022/05/09 05:13:10;;;;;;;1.40;0.60;;;5.10;99.90;;;;;;6194470;23;20327;-88
2022/05/09 05:15:57;;;;;;;1.80;0.50;;;5.20;99.90;;;;;;6194083;23;20322;-91
2022/05/09 05:18:26;;;;;;;1.42;0.50;;;5.40;99.90;;;;;;6192935;23;20020;-91
2022/05/09 05:20:55;;;;;;;1.17;0.50;;;5.50;99.90;;;;;;6194332;23;20096;-91
2022/05/09 05:23:44;;;;;;;;;;;;;;;;;;;;;
2022/05/09 05:26:20;;;;;;;2.25;0.70;;;5.90;99.90;;;;;;6219787;23;20019;-94
2022/05/09 05:28:45;;;;;;;1.67;0.70;;;6.30;99.90;;;;;;6194830;23;20020;-93
2022/05/09 05:31:17;;;;;;;2.97;1.00;;;6.50;99.90;;;;;;6194859;23;20350;-94
2022/05/09 05:33:44;;;;;;;4.63;1.20;;;6.60;99.90;;;;;;6194139;23;20295;-94
2022/05/09 05:36:09;;;;;;;4.15;1.33;;;6.70;99.90;;;;;;6193976;23;20027;-94
2022/05/09 05:41:09;;;;;;;2.80;1.17;;;6.80;99.90;;;;;;6243005;22;20330;-90
2022/05/09 05:43:35;;;;;;;4.18;1.60;;;6.90;99.90;;;;;;6194084;23;20027;-90
2022/05/09 05:46:01;;;;;;;6.07;1.97;;;7.00;99.90;;;;;;6194963;23;20360;-90
2022/05/09 05:48:27;;;;;;;7.30;2.10;;;7.20;99.90;;;;;;6194822;23;20038;-93
2022/05/09 05:50:58;;;;;;;7.83;2.43;;;7.30;99.90;;;;;;6194555;23;20286;-92
2022/05/09 05:53:24;;;;;;;6.05;2.13;;;7.50;99.90;;;;;;6194714;23;20016;-91
2022/05/09 05:55:50;;;;;;;5.87;2.37;;;7.70;99.90;;;;;;6194575;23;20024;-91
2022/05/09 05:58:15;;;;;;;6.30;2.13;;;7.90;99.90;;;;;;6194252;23;20020;-93
2022/05/09 06:00:41;;;;;;;4.37;2.20;;;8.20;99.90;;;;;;6194350;23;20023;-93
2022/05/09 06:03:08;;;;;;;7.83;2.80;;;8.50;99.90;;;;;;6196052;23;20016;-92
2022/05/09 06:05:34;;;;;;;;;;;9.00;99.90;;;;;;6196657;23;20454;-93
2022/05/09 06:07:59;;;;;;;6.97;3.03;;;9.20;99.90;;;;;;6196096;23;20002;-91
2022/05/09 06:10:26;;;;;;;9.57;3.53;;;9.40;99.90;;;;;;6221211;23;20066;-90
2022/05/09 06:12:53;;;;;;;;;;;9.70;99.90;;;;;;6196887;23;20066;-91
2022/05/09 06:15:25;;;;;;;7.80;2.60;;;10.10;99.90;;;;;;6196456;23;19919;-91
2022/05/09 06:17:52;;;;;;;8.00;2.30;;;10.40;99.90;;;;;;6196401;23;20016;-92
2022/05/09 06:20:19;;;;;;;9.05;3.28;;;10.70;99.90;;;;;;6196468;23;20464;-91
2022/05/09 06:22:45;;;;;;;9.20;3.38;;;10.80;99.90;;;;;;6196516;23;20020;-92
2022/05/09 06:25:13;;;;;;;8.73;3.13;;;10.80;99.90;;;;;;6196684;23;20099;-92
2022/05/09 06:27:40;;;;;;;7.70;2.70;;;10.90;99.90;;;;;;6196155;23;20012;-91
2022/05/09 06:30:09;;;;;;;5.63;2.88;;;11.00;99.90;;;;;;6196050;23;20142;-92
2022/05/09 06:32:35;;;;;;;5.82;2.70;;;11.30;99.90;;;;;;6196191;23;20016;-92
2022/05/09 06:35:06;;;;;;;7.72;2.55;;;11.90;99.90;;;;;;6221339;23;20016;-93
2022/05/09 06:37:33;;;;;;;5.53;2.50;;;12.60;99.90;;;;;;6196056;23;20019;-91
2022/05/09 06:40:00;;;;;;;8.95;2.20;;;13.40;99.90;;;;;;6195851;23;20020;-91
2022/05/09 06:42:27;;;;;;;9.18;2.33;;;14.00;99.90;;;;;;6195650;23;20099;-93
2022/05/09 06:44:54;;;;;;;6.38;1.77;;;14.40;99.90;;;;;;6195855;23;20095;-91
2022/05/09 06:47:20;;;;;;;9.48;3.17;;;14.70;99.90;;;;;;6196084;23;20012;-93
2022/05/09 06:49:46;;;;;;;8.10;2.37;;;14.80;99.90;;;;;;6196053;23;20322;-91
2022/05/09 06:52:12;;;;;;;6.18;2.63;;;14.90;99.90;;;;;;6195927;23;20012;-92
2022/05/09 06:54:37;;;;;;;3.90;1.73;;;15.30;99.90;;;;;;6195819;23;20022;-92
2022/05/09 06:57:05;;;;;;;8.93;2.08;;;15.80;99.90;;;;;;6195742;23;20050;-91
2022/05/09 07:05:05;;;;;;;6.75;2.15;;;17.30;99.90;;;;;;6276484;22;20020;-91
2022/05/09 07:07:49;;;;;;;;;;;;;;;;;;;;;
2022/05/09 07:10:29;;;;;;;11.02;2.53;;;17.90;99.90;;;;;;6250261;22;20015;-92
2022/05/09 07:13:04;;;;;;;4.60;1.80;;;18.10;99.90;;;;;;6224630;22;20030;-91
2022/05/09 07:15:31;;;;;;;6.82;1.75;;;18.30;99.90;;;;;;6220726;22;20404;-90
2022/05/09 07:21:43;;;;;;;7.03;1.98;;;18.50;98.00;;;;;;6229736;22;20019;-92
2022/05/09 08:17:47;;;;;;;6.43;2.47;;;14.80;99.90;;;;;;6207102;22;20339;-89
2022/05/09 08:20:19;;;;;;;3.70;1.92;;;14.80;99.90;;;;;;6164707;23;20059;-89
2022/05/09 08:22:46;;;;;;;5.22;1.80;;;14.70;99.90;;;;;;6165283;23;20048;-89
2022/05/09 08:25:13;;;;;;;;;;;14.80;99.90;;;;;;6164842;23;20017;-90
2022/05/09 08:27:40;;;;;;;5.13;1.70;;;14.80;99.90;;;;;;6164675;23;20325;-90
2022/05/09 08:30:09;;;;;;;4.93;2.00;;;14.80;99.90;;;;;;6164976;23;20054;-91
2022/05/09 08:35:13;;;;;;;7.28;2.03;;;14.90;99.90;;;;;;6188640;23;20341;-92
2022/05/09 08:37:39;;;;;;;4.90;1.58;;;14.80;99.90;;;;;;6158380;23;20525;-92
2022/05/09 08:40:06;;;;;;;6.00;2.10;;;14.90;99.90;;;;;;6135098;23;20028;-92
2022/05/09 08:42:48;;;;;;;4.78;1.50;;;14.90;99.90;;;;;;6133993;23;20343;-90
2022/05/09 08:45:17;;;;;;;5.07;1.60;;;15.00;99.90;;;;;;6135146;23;20140;-91
2022/05/09 08:48:03;;;;;;;3.83;1.40;;;15.00;99.90;;;;;;6134976;23;20147;-90
2022/05/09 08:50:37;;;;;;;5.10;1.58;;;15.10;99.90;;;;;;6135401;23;20021;-91
2022/05/09 08:53:05;;;;;;;5.43;2.15;;;15.10;99.90;;;;;;6135311;23;20024;-91
2022/05/09 08:55:41;;;;;;;3.47;1.40;;;15.20;99.90;;;;;;6135379;23;20053;-91
2022/05/09 08:58:33;;;;;;;3.70;1.20;;;15.30;99.90;;;;;;6135079;23;20052;-92
2022/05/09 09:01:03;;;;;;;4.13;1.40;;;15.40;99.90;;;;;;6135226;23;20443;-90
2022/05/09 09:03:35;;;;;;;4.22;1.30;;;15.40;99.90;;;;;;6135143;23;20043;-90
2022/05/09 09:06:07;;;;;;;2.95;1.10;;;15.40;99.90;;;;;;6134992;23;20103;-90
2022/05/09 09:08:53;;;;;;;6.13;1.15;;;15.50;99.90;;;;;;6135285;23;20014;-90
2022/05/09 09:11:37;;;;;;;2.88;1.10;;;15.50;99.90;;;;;;6135098;23;20025;-90
2022/05/09 09:14:14;;;;;;;3.58;1.23;;;15.60;99.90;;;;;;6135488;23;20021;-91
2022/05/09 09:17:24;;;;;;;5.47;1.05;;;15.70;99.90;;;;;;6135577;23;20389;-92
2022/05/09 09:26:56;;;;;;;3.17;0.90;;;15.90;97.90;;;;;;6186311;23;20083;-92
2022/05/09 09:29:51;;;;;;;3.03;1.00;;;15.90;98.70;;;;;;6164785;23;20016;-93
2022/05/09 09:32:31;;;;;;;3.22;1.00;;;16.00;98.80;;;;;;6188600;23;20470;-92
2022/05/09 09:35:37;;;;;;;5.32;1.17;;;16.10;98.70;;;;;;6164724;23;20020;-92
2022/05/09 09:39:23;;;;;;;2.60;0.95;;;16.20;96.80;;;;;;6165479;23;20024;-92
2022/05/09 09:41:55;;;;;;;4.55;1.27;;;16.20;96.30;;;;;;6173735;23;20052;-93
2022/05/09 09:48:07;;;;;;;4.38;1.10;;;16.20;93.90;;;;;;6126802;23;20021;-92
2022/05/09 09:50:33;;;;;;;4.13;1.33;;;16.30;95.10;;;;;;6166649;23;20059;-94
2022/05/09 09:53:00;;;;;;;5.63;1.40;;;16.40;94.20;;;;;;6166588;23;20013;-92
2022/05/09 09:59:32;;;;;;;4.07;0.93;;;16.50;93.30;;;;;;6103824;23;20080;-92
2022/05/09 10:02:37;;;;;;;4.68;1.00;;;16.60;91.80;;;;;;6126642;23;20022;-90
2022/05/09 10:05:12;;;;;;;3.72;0.90;;;16.60;90.70;;;;;;6077746;23;20439;-93
2022/05/09 10:13:32;;;;;;;3.00;0.88;;;16.90;90.10;;;;;;6216849;22;20029;-90
2022/05/09 10:16:05;;;;;;;3.15;0.90;;;17.00;89.70;;;;;;6166368;23;20017;-89
2022/05/09 10:18:33;;;;;;;4.05;0.93;;;17.10;89.10;;;;;;6165535;23;20016;-90
2022/05/09 10:21:09;;;;;;;3.58;1.27;;;17.30;89.30;;;;;;6163969;23;20458;-90
2022/05/09 10:26:34;;;;;;;4.00;1.20;;;17.50;85.10;;;;;;6190296;23;20016;-90
2022/05/09 10:29:15;;;;;;;4.22;1.25;;;17.60;86.30;;;;;;6165030;23;20016;-90
2022/05/09 10:31:47;;;;;;;4.47;1.35;;;17.70;85.50;;;;;;6166004;23;20092;-90
2022/05/09 10:34:46;;;;;;;2.78;0.90;;;17.70;86.10;;;;;;6190196;23;20132;-93
2022/05/09 10:37:36;;;;;;;5.13;1.58;;;17.90;85.30;;;;;;6157038;23;20062;-91
2022/05/09 10:40:07;;;;;;;4.72;0.90;;;18.00;84.60;;;;;;6165426;23;20012;-91
2022/05/09 10:42:49;;;;;;;4.60;1.00;;;18.10;81.30;;;;;;6165803;23;20455;-89
2022/05/09 10:45:26;;;;;;;2.38;1.10;;;18.20;81.80;;;;;;6165430;23;20027;-91
2022/05/09 10:48:14;;;;;;;;;;;18.40;82.10;;;;;;6166331;23;20012;-92
2022/05/09 10:51:02;;;;;;;3.15;1.00;;;18.50;82.50;;;;;;6165857;23;19916;-92
2022/05/09 10:53:54;;;;;;;5.07;1.10;;;18.60;79.80;;;;;;6156028;23;20397;-92
2022/05/09 10:56:24;;;;;;;4.53;1.08;;;18.70;78.60;;;;;;6166040;23;20035;-90
2022/05/09 10:59:02;;;;;;;4.22;0.93;;;18.80;79.30;;;;;;6165557;23;20050;-90
2022/05/09 11:02:00;;;;;;;4.30;1.10;;;19.00;77.80;;;;;;6165943;23;20071;-90
2022/05/09 11:04:46;;;;;;;;;;;19.10;76.30;;;;;;6164879;23;20056;-91
2022/05/09 11:07:40;;;;;;;3.58;1.17;;;19.30;76.50;;;;;;6174442;23;19916;-90
2022/05/09 11:11:00;;;;;;;;;;;;;;;;;;;;;
2022/05/09 11:14:23;;;;;;;;;;;;;;;;;;;;;
2022/05/09 11:16:55;;;;;;;5.35;1.40;;;19.70;72.40;;;;;;6190422;23;20023;-91
2022/05/09 11:19:47;;;;;;;3.40;0.93;;;19.80;72.60;;;;;;6165594;23;20070;-89
2022/05/09 11:22:52;;;;;;;2.78;1.20;;;19.90;71.40;;;;;;6121391;23;20100;-90
2022/05/09 11:25:46;;;;;;;;;;;;;;;;;;;;;
2022/05/09 11:28:40;;;;;;;4.50;0.80;;;20.20;72.70;;;;;;6190144;23;20024;-89
2022/05/09 11:31:32;;;;;;;3.47;1.00;;;20.30;71.90;;;;;;6165453;23;20341;-90
2022/05/09 11:34:07;;;;;;;2.42;0.90;;;20.50;71.70;;;;;;6165293;23;20013;-89
2022/05/09 11:36:51;;;;;;;3.55;0.70;;;20.70;67.70;;;;;;6165325;23;20017;-90
2022/05/09 11:39:27;;;;;;;2.00;0.73;;;20.80;69.60;;;;;;6164987;23;20020;-89
2022/05/09 11:45:11;;;;;;;4.03;0.90;;;21.00;68.00;;;;;;6190143;23;20063;-90
2022/05/09 11:48:08;;;;;;;3.17;1.25;;;21.20;66.50;;;;;;6165205;23;20059;-90
2022/05/09 11:50:46;;;;;;;3.15;0.80;;;21.30;66.80;;;;;;6164599;23;20021;-89
2022/05/09 11:53:15;;;;;;;3.83;0.80;;;21.40;67.50;;;;;;6164998;23;20052;-89
2022/05/09 11:55:48;;;;;;;4.60;0.68;;;21.50;67.30;;;;;;6189422;23;20505;-88
2022/05/09 11:58:15;;;;;;;3.22;0.70;;;21.50;67.30;;;;;;6189398;23;20009;-89
2022/05/09 12:00:43;;;;;;;3.30;0.82;;;21.60;67.00;;;;;;6164331;23;20071;-89
2022/05/09 12:03:10;;;;;;;2.45;0.80;;;21.60;66.00;;;;;;6164487;23;20012;-89
2022/05/09 12:05:37;;;;;;;3.97;0.70;;;21.70;66.50;;;;;;6164657;23;20021;-89
2022/05/09 12:08:08;;;;;;;3.35;0.90;;;21.80;66.50;;;;;;6189427;23;20527;-89
2022/05/09 12:10:38;;;;;;;2.42;0.80;;;21.80;66.10;;;;;;6215869;23;20021;-88
2022/05/09 12:13:19;;;;;;;4.78;0.90;;;21.90;65.30;;;;;;6189158;23;20019;-91
2022/05/09 12:15:51;;;;;;;2.17;1.10;;;22.00;64.30;;;;;;6164539;23;20079;-88
2022/05/09 12:18:18;;;;;;;4.25;0.93;;;22.00;64.70;;;;;;6189618;23;20016;-89
2022/05/09 12:20:44;;;;;;;2.83;0.85;;;22.10;64.70;;;;;;6164919;23;20017;-90
2022/05/09 12:23:35;;;;;;;2.97;0.80;;;22.10;64.30;;;;;;6164529;23;20457;-90
2022/05/09 12:26:06;;;;;;;4.47;0.95;;;22.20;64.50;;;;;;6164974;23;20017;-90
2022/05/09 12:28:39;;;;;;;2.47;0.95;;;22.30;62.80;;;;;;6164578;23;20442;-90
2022/05/09 12:31:18;;;;;;;2.20;0.80;;;22.30;62.80;;;;;;6165039;23;20027;-91
2022/05/09 12:33:46;;;;;;;2.13;0.80;;;22.30;61.30;;;;;;6165083;23;20035;-91
2022/05/09 12:36:14;;;;;;;1.45;0.60;;;22.30;61.80;;;;;;6165463;23;20024;-92
2022/05/09 12:38:43;;;;;;;4.07;0.70;;;22.40;62.00;;;;;;6164922;23;20016;-89
2022/05/09 12:41:16;;;;;;;2.47;0.70;;;22.40;61.70;;;;;;6165304;23;20342;-89
2022/05/09 12:44:08;;;;;;;2.25;0.68;;;22.40;61.70;;;;;;6164512;23;20016;-89
2022/05/09 12:46:45;;;;;;;2.40;0.80;;;22.50;62.70;;;;;;6164449;23;20024;-92
2022/05/09 12:49:13;;;;;;;3.42;0.85;;;22.60;62.00;;;;;;6165102;23;20099;-91
2022/05/09 12:51:48;;;;;;;1.75;0.73;;;22.60;61.80;;;;;;6164755;23;20355;-90
2022/05/09 12:54:18;;;;;;;2.42;0.88;;;22.60;61.90;;;;;;6165224;23;20027;-90
2022/05/09 12:56:49;;;;;;;4.05;0.90;;;22.60;61.50;;;;;;6165054;23;20013;-91
2022/05/09 12:59:16;;;;;;;2.17;0.40;;;22.70;61.50;;;;;;6164772;23;20531;-90
2022/05/09 13:01:50;;;;;;;3.13;1.02;;;22.70;62.00;;;;;;6165151;23;20027;-90
2022/05/09 13:04:28;;;;;;;4.10;0.90;;;22.70;61.40;;;;;;6164771;23;20051;-91
2022/05/09 13:07:04;;;;;;;4.80;1.15;;;22.70;60.70;;;;;;6165522;23;20024;-91
2022/05/09 13:09:34;;;;;;;1.97;0.50;;;22.80;60.50;;;;;;6165287;23;20350;-90
2022/05/09 13:12:18;;;;;;;4.40;1.00;;;22.70;60.00;;;;;;6166325;23;20763;-90
2022/05/09 13:14:53;;;;;;;2.58;0.68;;;22.70;59.10;;;;;;6161589;23;20104;-91
2022/05/09 13:17:36;;;;;;;3.47;0.70;;;22.70;60.20;;;;;;6179680;23;20016;-90
2022/05/09 13:20:06;;;;;;;5.35;1.20;;;22.80;59.80;;;;;;6166812;23;20021;-91
2022/05/09 13:22:41;;;;;;;2.65;0.60;;;22.90;59.70;;;;;;6166505;23;20012;-89
2022/05/09 13:25:16;;;;;;;2.38;0.68;;;22.90;59.80;;;;;;6166427;23;20017;-89
2022/05/09 13:27:45;;;;;;;4.22;0.70;;;23.00;60.20;;;;;;6166319;23;20021;-91
2022/05/09 13:30:12;;;;;;;1.90;0.60;;;23.00;59.30;;;;;;6166649;23;20043;-91
2022/05/09 13:32:38;;;;;;;3.13;0.77;;;23.00;58.80;;;;;;6166762;23;20020;-91
2022/05/09 13:35:18;;;;;;;3.25;0.82;;;23.00;59.10;;;;;;6166536;23;20023;-91
2022/05/09 13:37:44;;;;;;;5.13;0.77;;;23.10;58.80;;;;;;6191226;23;20019;-90
2022/05/09 13:40:12;;;;;;;2.65;0.70;;;23.10;58.40;;;;;;6217816;23;20016;-91
2022/05/09 13:42:42;;;;;;;1.83;0.70;;;23.20;58.80;;;;;;6161667;23;20024;-89
2022/05/09 13:45:19;;;;;;;3.00;0.65;;;23.20;57.90;;;;;;6166331;23;20099;-92
2022/05/09 13:47:58;;;;;;;2.05;0.70;;;23.20;58.20;;;;;;6166583;23;20020;-92
2022/05/09 13:50:41;;;;;;;1.92;0.75;;;23.20;58.60;;;;;;6166700;23;20504;-90
2022/05/09 13:53:26;;;;;;;3.58;0.80;;;23.10;56.90;;;;;;6166409;23;20055;-90
2022/05/09 13:55:55;;;;;;;3.80;0.80;;;23.10;58.70;;;;;;6166491;23;20012;-91
2022/05/09 13:58:24;;;;;;;1.55;0.68;;;23.10;58.30;;;;;;6161317;23;20044;-90
2022/05/09 14:00:52;;;;;;;2.30;0.70;;;23.20;57.60;;;;;;6180643;23;20021;-89
2022/05/09 14:03:24;;;;;;;3.25;0.82;;;23.20;58.20;;;;;;6186292;23;20048;-89
2022/05/09 14:06:45;;;;;;;2.15;0.63;;;23.30;57.90;;;;;;6161180;23;20354;-88
2022/05/09 14:09:20;;;;;;;1.90;0.70;;;23.30;57.10;;;;;;6096224;23;20019;-88
2022/05/09 14:12:03;;;;;;;4.57;0.80;;;23.30;58.10;;;;;;6192666;23;20029;-90
2022/05/09 14:14:41;;;;;;;3.85;0.88;;;23.30;57.90;;;;;;6166084;23;20012;-90
2022/05/09 14:17:19;;;;;;;1.30;0.52;;;23.30;58.00;;;;;;6190680;23;20009;-90
2022/05/09 14:19:50;;;;;;;3.50;0.68;;;23.30;58.20;;;;;;6190738;23;20012;-87
2022/05/09 14:22:20;;;;;;;1.80;0.77;;;23.30;58.00;;;;;;6165438;23;20100;-88
2022/05/09 14:30:34;;;;;;;2.75;0.82;;;23.20;58.00;;;;;;6190707;23;20021;-91
2022/05/09 14:33:00;;;;;;;2.38;0.70;;;23.20;56.10;;;;;;6165980;23;20028;-89
2022/05/09 14:35:42;;;;;;;24.33;1.25;;;23.10;57.70;;;;;;6217148;23;20016;-89
2022/05/09 14:38:37;;;;;;;2.55;0.80;;;23.10;57.10;;;;;;6190383;23;20013;-90
2022/05/09 14:41:44;;;;;;;4.50;1.08;;;23.10;56.70;;;;;;6190566;23;20338;-89
2022/05/09 14:44:34;;;;;;;2.72;1.02;;;23.00;53.60;;;;;;6190097;23;20017;-92
2022/05/09 14:47:07;;;;;;;2.00;0.80;;;23.00;56.00;;;;;;6161973;23;20072;-89
2022/05/09 14:50:07;;;;;;;2.47;0.60;;;22.90;56.10;;;;;;6164579;23;20016;-89
2022/05/09 14:52:58;;;;;;;2.45;0.65;;;22.90;56.00;;;;;;6165010;23;20031;-87
2022/05/09 14:58:38;;;;;;;2.08;0.70;;;22.80;57.10;;;;;;6189351;23;20119;-89
2022/05/09 15:01:10;;;;;;;2.92;0.80;;;22.80;57.40;;;;;;6164725;23;20023;-89
2022/05/09 15:03:38;;;;;;;3.03;0.63;;;22.80;57.40;;;;;;6189525;23;20108;-89
2022/05/09 15:06:16;;;;;;;;;;;;;;;;;;;;;
2022/05/09 15:08:43;;;;;;;3.15;0.80;;;22.60;57.90;;;;;;6189542;23;20055;-86
2022/05/09 15:11:28;;;;;;;3.35;0.70;;;22.60;57.80;;;;;;6170196;23;20032;-90
2022/05/09 15:14:06;;;;;;;2.03;0.73;;;22.60;58.00;;;;;;6139083;23;20024;-92
2022/05/09 15:16:35;;;;;;;2.83;0.60;;;22.50;57.50;;;;;;6136946;23;20052;-90
2022/05/09 15:19:02;;;;;;;3.00;0.60;;;22.50;57.00;;;;;;6167943;23;20025;-90
2022/05/09 15:21:27;;;;;;;3.25;0.73;;;22.40;56.60;;;;;;6138069;23;20092;-89
2022/05/09 15:23:54;;;;;;;2.78;0.63;;;22.30;56.50;;;;;;6164617;23;20021;-90
2022/05/09 15:26:48;;;;;;;;;;;;;;;;;;;;;
2022/05/09 15:29:17;;;;;;;1.80;0.52;;;22.20;54.00;;;;;;6160235;23;20341;-90
2022/05/09 15:35:22;;;;;;;2.17;0.57;;;22.10;55.00;;;;;;6168391;23;20355;-91
2022/05/09 15:43:37;;;;;;;5.57;1.08;;;22.00;56.30;;;;;;6189685;23;20032;-90
2022/05/09 15:46:04;;;;;;;3.40;0.75;;;22.00;55.70;;;;;;6162827;23;20099;-90
2022/05/09 15:48:30;;;;;;;2.53;0.63;;;22.00;55.70;;;;;;6164322;23;20020;-88
2022/05/09 15:50:57;;;;;;;2.50;0.60;;;22.00;56.00;;;;;;6189134;23;20091;-91